Time;durP1;ratioP1;P1;durP2;ratioP2;P2;SDS_P1;SDS_P2;PMS_P1;PMS_P2;Temp;Humidity;BMP_temperature;BMP_pressure;BME280_temperature;BME280_humidity;BME280_pressure;Samples;Min_cycle;Max_cycle;Signal;HPM_P1;HPM_P2
2022/09/21 00:02:48;;;;;;;0.20;0.10;;;20.50;99.90;;;;;;26044106;22;20160;-71
2022/09/21 00:12:54;;;;;;;0.20;0.10;;;20.40;99.90;;;;;;26042869;22;20214;-69
2022/09/21 00:22:58;;;;;;;0.20;0.00;;;20.50;99.90;;;;;;26042273;22;20263;-69
2022/09/21 00:33:03;;;;;;;0.20;0.00;;;20.40;99.90;;;;;;26040833;22;20320;-71
2022/09/21 00:43:15;;;;;;;0.20;0.10;;;20.30;99.90;;;;;;26042139;22;20299;-70
2022/09/21 00:53:21;;;;;;;0.20;0.10;;;20.20;99.90;;;;;;26039870;22;20207;-70
2022/09/21 01:03:25;;;;;;;0.20;0.00;;;20.00;99.90;;;;;;26040208;22;20194;-70
2022/09/21 01:13:40;;;;;;;0.20;0.10;;;20.00;99.90;;;;;;26039656;22;20190;-71
2022/09/21 01:24:22;;;;;;;0.20;0.00;;;19.90;99.90;;;;;;26044243;22;20152;-70
2022/09/21 01:34:33;;;;;;;0.20;0.10;;;19.50;99.90;;;;;;26020290;22;20240;-70
2022/09/21 01:44:40;;;;;;;0.20;0.10;;;19.40;99.90;;;;;;26048315;22;20225;-69
2022/09/21 01:54:49;;;;;;;0.20;0.00;;;19.50;99.90;;;;;;26023291;22;20215;-70
2022/09/21 02:04:53;;;;;;;0.20;0.00;;;19.40;99.90;;;;;;26047360;22;20184;-70
2022/09/21 02:15:00;;;;;;;0.20;0.10;;;19.30;99.90;;;;;;26048087;22;20176;-69
2022/09/21 02:25:09;;;;;;;0.20;0.10;;;19.30;99.90;;;;;;26046601;22;20169;-71
2022/09/21 02:35:21;;;;;;;0.20;0.00;;;19.30;99.90;;;;;;26045452;22;20187;-71
2022/09/21 02:45:28;;;;;;;0.20;0.00;;;19.20;99.90;;;;;;26046425;22;20194;-71
2022/09/21 02:55:34;;;;;;;0.20;0.00;;;19.20;99.90;;;;;;26045360;22;20192;-69
2022/09/21 03:05:37;;;;;;;0.20;0.10;;;19.10;99.90;;;;;;26046246;22;20244;-70
2022/09/21 03:15:44;;;;;;;0.20;0.10;;;19.10;99.90;;;;;;26045193;22;20195;-69
2022/09/21 03:25:48;;;;;;;0.20;0.00;;;19.00;99.90;;;;;;26045617;22;20152;-70
2022/09/21 03:35:53;;;;;;;0.20;0.10;;;18.80;99.90;;;;;;26045012;22;20214;-69
2022/09/21 03:45:57;;;;;;;0.20;0.00;;;18.70;99.90;;;;;;26041916;22;20267;-70
2022/09/21 03:56:03;;;;;;;0.20;0.00;;;18.70;99.90;;;;;;26042774;22;20196;-70
2022/09/21 04:06:09;;;;;;;0.20;0.00;;;18.80;99.90;;;;;;26043139;22;20180;-69
2022/09/21 04:16:16;;;;;;;0.20;0.10;;;18.70;99.90;;;;;;26042051;22;20195;-70
2022/09/21 04:26:25;;;;;;;0.20;0.00;;;18.60;99.90;;;;;;26040812;22;20247;-70
2022/09/21 04:36:31;;;;;;;0.20;0.00;;;18.70;99.90;;;;;;26040685;22;20267;-70
2022/09/21 04:46:39;;;;;;;0.20;0.10;;;18.50;99.90;;;;;;26017160;22;20160;-70
2022/09/21 04:56:44;;;;;;;0.20;0.00;;;18.50;99.90;;;;;;26039801;22;20251;-71
2022/09/21 05:06:48;;;;;;;0.20;0.00;;;18.40;99.90;;;;;;26052836;22;20203;-70
2022/09/21 05:16:53;;;;;;;0.20;0.00;;;18.30;99.90;;;;;;26026203;22;20210;-71
2022/09/21 05:26:57;;;;;;;0.20;0.00;;;18.40;99.90;;;;;;26052596;22;20183;-70
2022/09/21 05:37:10;;;;;;;0.20;0.00;;;18.40;99.90;;;;;;26024089;22;20237;-72
2022/09/21 05:47:24;;;;;;;0.20;0.00;;;18.50;99.90;;;;;;26047808;22;20172;-70
2022/09/21 05:57:41;;;;;;;0.20;0.00;;;18.70;99.90;;;;;;25988920;22;20335;-69
2022/09/21 06:07:44;;;;;;;0.20;0.00;;;18.60;99.90;;;;;;25994222;22;20201;-70
2022/09/21 06:17:49;;;;;;;0.20;0.00;;;18.70;99.90;;;;;;26043327;22;20176;-70
2022/09/21 06:27:53;;;;;;;0.20;0.00;;;19.20;99.90;;;;;;26017619;22;20180;-71
2022/09/21 06:38:03;;;;;;;0.20;0.00;;;19.40;99.90;;;;;;26015456;22;20180;-69
2022/09/21 06:48:07;;;;;;;0.20;0.10;;;19.90;99.90;;;;;;26041898;22;20211;-72
2022/09/21 06:58:12;;;;;;;0.20;0.00;;;20.70;99.90;;;;;;26041582;22;20252;-68
2022/09/21 07:08:18;;;;;;;0.20;0.10;;;21.40;99.90;;;;;;26036965;22;20207;-70
2022/09/21 07:18:43;;;;;;;0.20;0.00;;;21.80;99.90;;;;;;26034421;22;20225;-69
2022/09/21 07:28:47;;;;;;;0.20;0.08;;;22.40;99.90;;;;;;26007052;22;20219;-69
2022/09/21 07:38:52;;;;;;;0.20;0.10;;;22.20;99.90;;;;;;26039902;22;20253;-68
2022/09/21 07:48:56;;;;;;;0.20;0.00;;;22.20;99.90;;;;;;26012795;22;20232;-68
2022/09/21 07:59:08;;;;;;;0.20;0.00;;;22.50;99.90;;;;;;25911346;23;20216;-68
2022/09/21 08:09:11;;;;;;;0.20;0.00;;;22.50;99.90;;;;;;25912817;23;20197;-69
2022/09/21 08:19:17;;;;;;;0.20;0.00;;;22.80;99.90;;;;;;25913509;22;20805;-68
2022/09/21 08:29:20;;;;;;;0.20;0.00;;;23.30;99.90;;;;;;25909265;23;20196;-69
2022/09/21 08:39:25;;;;;;;0.20;0.00;;;23.20;99.90;;;;;;25911038;23;20248;-68
2022/09/21 08:49:31;;;;;;;0.20;0.00;;;23.40;99.90;;;;;;25909274;23;20196;-68
2022/09/21 08:59:37;;;;;;;0.20;0.00;;;23.50;99.90;;;;;;25908025;23;20153;-67
2022/09/21 09:09:54;;;;;;;0.20;0.00;;;23.80;99.90;;;;;;25910136;23;20235;-68
2022/09/21 09:20:03;;;;;;;0.20;0.00;;;23.80;99.90;;;;;;25881650;23;20220;-68
2022/09/21 09:30:15;;;;;;;0.20;0.00;;;24.00;99.90;;;;;;25901506;23;20280;-68
2022/09/21 09:40:32;;;;;;;0.20;0.00;;;24.20;99.90;;;;;;25855727;23;20164;-68
2022/09/21 09:50:39;;;;;;;0.20;0.00;;;24.20;99.90;;;;;;25929663;22;20206;-68
2022/09/21 10:00:45;;;;;;;0.20;0.00;;;24.60;99.90;;;;;;26016818;22;20227;-69
2022/09/21 10:10:49;;;;;;;0.20;0.00;;;25.10;99.90;;;;;;26015313;22;20237;-68
2022/09/21 10:21:00;;;;;;;0.20;0.00;;;25.20;99.90;;;;;;26018782;22;20187;-69
2022/09/21 10:31:16;;;;;;;0.20;0.10;;;25.60;99.90;;;;;;26040815;22;20179;-68
2022/09/21 10:41:21;;;;;;;0.20;0.00;;;25.00;99.90;;;;;;26015217;22;20172;-69
2022/09/21 10:51:29;;;;;;;0.20;0.10;;;26.20;99.90;;;;;;26016045;22;20830;-69
2022/09/21 11:01:34;;;;;;;0.20;0.05;;;25.80;99.90;;;;;;26041778;22;20145;-68
2022/09/21 11:11:46;;;;;;;0.20;0.00;;;26.30;99.90;;;;;;26037082;22;20184;-68
2022/09/21 11:21:57;;;;;;;0.20;0.00;;;26.60;99.90;;;;;;26012889;22;20160;-68
2022/09/21 11:32:37;;;;;;;0.20;0.00;;;27.10;99.90;;;;;;26040070;22;20180;-68
2022/09/21 11:42:55;;;;;;;0.20;0.00;;;27.70;99.90;;;;;;26019970;22;20193;-70
2022/09/21 11:53:14;;;;;;;0.20;0.10;;;27.80;99.90;;;;;;26036212;22;20223;-71
2022/09/21 12:03:40;;;;;;;0.20;0.00;;;28.10;99.90;;;;;;26013565;22;20184;-70
2022/09/21 12:13:54;;;;;;;0.20;0.00;;;28.40;99.90;;;;;;26029832;22;20187;-69
2022/09/21 12:24:04;;;;;;;0.20;0.03;;;29.00;99.90;;;;;;26030040;22;20163;-69
2022/09/21 12:34:17;;;;;;;0.20;0.00;;;29.30;99.90;;;;;;26026421;22;20253;-68
2022/09/21 12:44:28;;;;;;;0.20;0.00;;;28.90;99.90;;;;;;26030082;22;20171;-69
2022/09/21 12:54:47;;;;;;;0.20;0.00;;;28.30;99.90;;;;;;26008771;22;20255;-70
2022/09/21 13:05:04;;;;;;;0.20;0.10;;;28.70;99.90;;;;;;26010403;22;20635;-70
2022/09/21 13:15:17;;;;;;;0.20;0.00;;;28.90;99.90;;;;;;26036129;22;20247;-71
2022/09/21 13:25:26;;;;;;;0.20;0.00;;;29.60;99.90;;;;;;26043041;22;20248;-70
2022/09/21 13:35:53;;;;;;;0.20;0.00;;;30.00;99.90;;;;;;26017505;22;20224;-69
2022/09/21 13:45:58;;;;;;;0.20;0.00;;;30.20;99.90;;;;;;26043852;22;20179;-71
2022/09/21 13:56:09;;;;;;;0.20;0.00;;;29.70;99.90;;;;;;26043176;22;20211;-69
2022/09/21 14:06:17;;;;;;;0.20;0.10;;;29.70;99.90;;;;;;26042389;22;20184;-71
2022/09/21 14:16:57;;;;;;;0.20;0.00;;;29.70;99.90;;;;;;26042527;22;20195;-71
2022/09/21 14:27:13;;;;;;;0.20;0.00;;;29.80;99.90;;;;;;26044426;22;20171;-70
2022/09/21 14:37:32;;;;;;;0.20;0.10;;;30.00;99.90;;;;;;26014333;22;20180;-70
2022/09/21 14:48:05;;;;;;;0.20;0.10;;;30.10;99.90;;;;;;25988381;22;20175;-70
2022/09/21 14:58:23;;;;;;;0.20;0.00;;;29.40;99.90;;;;;;25900234;23;20303;-68
2022/09/21 15:19:20;;;;;;;0.20;0.00;;;30.60;99.90;;;;;;25886011;22;21056;-69
2022/09/21 15:29:31;;;;;;;0.20;0.00;;;29.80;99.90;;;;;;25908995;23;20215;-68
2022/09/21 15:39:35;;;;;;;0.20;0.00;;;29.10;99.90;;;;;;25910017;23;20260;-69
2022/09/21 15:49:41;;;;;;;0.20;0.00;;;28.00;99.90;;;;;;25913034;23;20233;-69
2022/09/21 15:59:46;;;;;;;0.20;0.00;;;26.20;99.90;;;;;;26036781;22;20206;-69
2022/09/21 16:09:51;;;;;;;0.20;0.10;;;25.60;99.90;;;;;;26036014;22;20251;-71
2022/09/21 16:20:19;;;;;;;0.20;0.10;;;25.40;99.90;;;;;;26008295;22;20267;-69
2022/09/21 16:30:45;;;;;;;0.20;0.00;;;24.80;99.90;;;;;;26003709;22;20187;-70
2022/09/21 16:40:50;;;;;;;0.20;0.00;;;24.50;99.90;;;;;;26031972;22;20223;-70
2022/09/21 16:50:55;;;;;;;0.20;0.00;;;24.20;99.90;;;;;;26002241;22;20206;-68
2022/09/21 17:00:59;;;;;;;0.20;0.00;;;24.00;99.90;;;;;;26031904;22;21114;-69
2022/09/21 17:11:05;;;;;;;0.20;0.00;;;23.70;99.90;;;;;;26029780;22;20272;-68
2022/09/21 17:21:09;;;;;;;0.20;0.00;;;23.60;99.90;;;;;;26028785;22;20172;-69
2022/09/21 17:31:16;;;;;;;0.20;0.00;;;23.30;99.90;;;;;;26031689;22;20199;-69
2022/09/21 17:41:25;;;;;;;0.20;0.00;;;23.10;99.90;;;;;;26027752;22;20160;-69
2022/09/21 18:01:52;;;;;;;0.20;0.00;;;22.90;99.90;;;;;;26030452;22;20236;-69
2022/09/21 18:12:20;;;;;;;0.20;0.00;;;22.60;99.90;;;;;;26012337;22;20188;-69
2022/09/21 18:22:32;;;;;;;0.20;0.00;;;22.50;99.90;;;;;;26037618;22;20342;-70
2022/09/21 18:32:55;;;;;;;0.20;0.10;;;22.40;99.90;;;;;;26012286;22;20176;-68
2022/09/21 18:43:05;;;;;;;0.20;0.00;;;22.40;99.90;;;;;;26012108;22;20238;-68
2022/09/21 18:53:20;;;;;;;0.20;0.00;;;22.40;99.90;;;;;;26010515;22;20263;-68
2022/09/21 19:03:24;;;;;;;0.20;0.00;;;22.30;99.90;;;;;;26034165;22;20208;-68
2022/09/21 19:13:41;;;;;;;0.20;0.00;;;22.20;99.90;;;;;;26006418;22;20614;-68
2022/09/21 19:23:55;;;;;;;0.20;0.10;;;22.10;99.90;;;;;;26035446;22;20159;-68
2022/09/21 19:34:12;;;;;;;0.20;0.10;;;22.20;99.90;;;;;;26035847;22;20217;-67
2022/09/21 19:44:45;;;;;;;0.20;0.10;;;22.20;99.90;;;;;;26009798;22;20208;-69
2022/09/21 20:05:18;;;;;;;0.20;0.00;;;21.90;99.90;;;;;;26009624;22;20184;-68
2022/09/21 20:15:28;;;;;;;0.20;0.00;;;22.00;99.90;;;;;;26036765;22;20275;-69
2022/09/21 20:25:35;;;;;;;0.20;0.00;;;22.50;99.90;;;;;;26037304;22;20159;-69
2022/09/21 20:35:41;;;;;;;0.20;0.00;;;22.50;99.90;;;;;;26036339;22;20259;-69
2022/09/21 20:45:48;;;;;;;0.20;0.00;;;22.40;99.90;;;;;;26035696;22;20152;-71
2022/09/21 20:55:57;;;;;;;0.20;0.00;;;22.10;99.90;;;;;;25985734;22;20195;-71
2022/09/21 21:06:09;;;;;;;0.20;0.00;;;22.10;99.90;;;;;;26015192;22;20268;-71
2022/09/21 21:16:14;;;;;;;0.20;0.00;;;21.90;99.90;;;;;;26039690;22;20229;-71
2022/09/21 21:26:18;;;;;;;0.20;0.00;;;21.80;99.90;;;;;;26039104;22;20160;-70
2022/09/21 21:36:23;;;;;;;0.20;0.00;;;21.60;99.90;;;;;;26013498;22;20199;-71
2022/09/21 21:46:27;;;;;;;0.20;0.00;;;21.40;99.90;;;;;;26023054;22;20178;-71
2022/09/21 21:56:32;;;;;;;0.20;0.00;;;21.20;99.90;;;;;;26049019;22;20287;-72
2022/09/21 22:06:38;;;;;;;0.20;0.00;;;21.40;99.90;;;;;;26047999;22;20214;-69
2022/09/21 22:16:43;;;;;;;0.20;0.10;;;21.50;99.90;;;;;;26018451;22;20180;-69
2022/09/21 22:26:47;;;;;;;0.20;0.00;;;21.50;99.90;;;;;;26019546;22;20160;-68
2022/09/21 22:36:55;;;;;;;0.20;0.00;;;21.60;99.90;;;;;;26046373;22;20264;-69
2022/09/21 22:46:58;;;;;;;0.20;0.00;;;21.30;99.90;;;;;;26021164;22;20223;-71
2022/09/21 22:57:04;;;;;;;0.20;0.10;;;21.00;99.90;;;;;;25991658;22;20245;-70
2022/09/21 23:07:07;;;;;;;0.20;0.00;;;20.60;99.90;;;;;;26018329;22;20199;-69
2022/09/21 23:17:12;;;;;;;0.20;0.00;;;20.50;99.90;;;;;;26043951;22;20184;-70
2022/09/21 23:27:16;;;;;;;0.20;0.00;;;20.50;99.90;;;;;;26044722;22;20160;-69
2022/09/21 23:37:21;;;;;;;0.20;0.10;;;20.50;99.90;;;;;;26042171;22;20203;-70
2022/09/21 23:47:25;;;;;;;0.20;0.00;;;20.50;99.90;;;;;;26043862;22;20163;-71
2022/09/21 23:57:30;;;;;;;0.20;0.00;;;20.60;99.90;;;;;;26041439;22;20259;-71
